sensor_id;sensor_type;location;lat;lon;timestamp;temperature;humidity
25328;DHT22;13279;51.300;12.394;2022-11-21T00:00:31;0.30;99.90
25328;DHT22;13279;51.300;12.394;2022-11-21T00:03:00;0.30;99.90
25328;DHT22;13279;51.300;12.394;2022-11-21T00:05:29;0.30;99.90
25328;DHT22;13279;51.300;12.394;2022-11-21T00:07:56;0.30;99.90
25328;DHT22;13279;51.300;12.394;2022-11-21T00:10:25;0.30;99.90
25328;DHT22;13279;51.300;12.394;2022-11-21T00:12:53;0.30;99.90
25328;DHT22;13279;51.300;12.394;2022-11-21T00:15:23;0.40;99.90
25328;DHT22;13279;51.300;12.394;2022-11-21T00:17:51;0.40;99.90
25328;DHT22;13279;51.300;12.394;2022-11-21T00:20:20;0.40;99.90
25328;DHT22;13279;51.300;12.394;2022-11-21T00:22:48;0.40;99.90
25328;DHT22;13279;51.300;12.394;2022-11-21T00:25:15;0.40;99.90
25328;DHT22;13279;51.300;12.394;2022-11-21T00:27:43;0.40;99.90
25328;DHT22;13279;51.300;12.394;2022-11-21T00:30:11;0.40;99.90
25328;DHT22;13279;51.300;12.394;2022-11-21T00:32:39;0.40;99.90
25328;DHT22;13279;51.300;12.394;2022-11-21T00:35:07;0.50;99.90
25328;DHT22;13279;51.300;12.394;2022-11-21T00:37:35;0.50;99.90
25328;DHT22;13279;51.300;12.394;2022-11-21T00:40:02;0.50;99.90
25328;DHT22;13279;51.300;12.394;2022-11-21T00:42:30;0.50;99.90
25328;DHT22;13279;51.300;12.394;2022-11-21T00:44:58;0.50;99.90
25328;DHT22;13279;51.300;12.394;2022-11-21T00:47:25;0.60;99.90
25328;DHT22;13279;51.300;12.394;2022-11-21T00:49:54;0.60;99.90
25328;DHT22;13279;51.300;12.394;2022-11-21T00:52:21;0.60;99.90
25328;DHT22;13279;51.300;12.394;2022-11-21T00:54:48;0.70;99.90
25328;DHT22;13279;51.300;12.394;2022-11-21T00:57:16;0.70;99.90
25328;DHT22;13279;51.300;12.394;2022-11-21T00:59:43;0.70;99.90
25328;DHT22;13279;51.300;12.394;2022-11-21T01:02:10;0.70;99.90
25328;DHT22;13279;51.300;12.394;2022-11-21T01:04:38;0.80;99.90
25328;DHT22;13279;51.300;12.394;2022-11-21T01:07:07;0.80;99.90
25328;DHT22;13279;51.300;12.394;2022-11-21T01:09:34;0.80;99.90
25328;DHT22;13279;51.300;12.394;2022-11-21T01:12:02;0.90;99.90
25328;DHT22;13279;51.300;12.394;2022-11-21T01:14:30;0.90;99.90
25328;DHT22;13279;51.300;12.394;2022-11-21T01:16:57;0.90;99.90
25328;DHT22;13279;51.300;12.394;2022-11-21T01:19:24;1.00;99.90
25328;DHT22;13279;51.300;12.394;2022-11-21T01:21:52;1.00;99.90
25328;DHT22;13279;51.300;12.394;2022-11-21T01:24:21;1.00;99.90
25328;DHT22;13279;51.300;12.394;2022-11-21T01:26:48;1.00;99.90
25328;DHT22;13279;51.300;12.394;2022-11-21T01:29:16;1.00;99.90
25328;DHT22;13279;51.300;12.394;2022-11-21T01:31:43;1.00;99.90
25328;DHT22;13279;51.300;12.394;2022-11-21T01:34:10;1.10;99.90
25328;DHT22;13279;51.300;12.394;2022-11-21T01:36:40;1.10;99.90
25328;DHT22;13279;51.300;12.394;2022-11-21T01:39:09;1.10;99.90
25328;DHT22;13279;51.300;12.394;2022-11-21T01:41:39;1.10;99.90
25328;DHT22;13279;51.300;12.394;2022-11-21T01:44:15;1.10;99.90
25328;DHT22;13279;51.300;12.394;2022-11-21T01:46:44;1.10;99.90
25328;DHT22;13279;51.300;12.394;2022-11-21T01:49:13;1.10;99.90
25328;DHT22;13279;51.300;12.394;2022-11-21T01:51:45;1.10;99.90
25328;DHT22;13279;51.300;12.394;2022-11-21T01:54:17;1.10;99.90
25328;DHT22;13279;51.300;12.394;2022-11-21T01:56:49;1.10;99.90
25328;DHT22;13279;51.300;12.394;2022-11-21T01:59:22;1.20;99.90
25328;DHT22;13279;51.300;12.394;2022-11-21T02:01:53;1.10;99.90
25328;DHT22;13279;51.300;12.394;2022-11-21T02:04:23;1.10;99.90
25328;DHT22;13279;51.300;12.394;2022-11-21T02:06:52;1.10;99.90
25328;DHT22;13279;51.300;12.394;2022-11-21T02:09:20;1.10;99.90
25328;DHT22;13279;51.300;12.394;2022-11-21T02:11:53;1.10;99.90
25328;DHT22;13279;51.300;12.394;2022-11-21T02:14:21;1.20;99.90
25328;DHT22;13279;51.300;12.394;2022-11-21T02:16:49;1.10;99.90
25328;DHT22;13279;51.300;12.394;2022-11-21T02:19:25;1.10;99.90
25328;DHT22;13279;51.300;12.394;2022-11-21T02:21:58;1.10;99.90
25328;DHT22;13279;51.300;12.394;2022-11-21T02:24:31;1.10;99.90
25328;DHT22;13279;51.300;12.394;2022-11-21T02:27:02;1.10;99.90
25328;DHT22;13279;51.300;12.394;2022-11-21T02:29:30;1.10;99.90
25328;DHT22;13279;51.300;12.394;2022-11-21T02:31:59;1.10;99.90
25328;DHT22;13279;51.300;12.394;2022-11-21T02:34:30;1.10;99.90
25328;DHT22;13279;51.300;12.394;2022-11-21T02:36:58;1.00;99.90
25328;DHT22;13279;51.300;12.394;2022-11-21T02:39:29;1.10;99.90
25328;DHT22;13279;51.300;12.394;2022-11-21T02:42:06;1.10;99.90
25328;DHT22;13279;51.300;12.394;2022-11-21T02:44:42;1.10;99.90
25328;DHT22;13279;51.300;12.394;2022-11-21T02:47:11;1.10;99.90
25328;DHT22;13279;51.300;12.394;2022-11-21T02:49:43;1.10;99.90
25328;DHT22;13279;51.300;12.394;2022-11-21T02:52:14;1.10;99.90
25328;DHT22;13279;51.300;12.394;2022-11-21T02:54:42;1.10;99.90
25328;DHT22;13279;51.300;12.394;2022-11-21T02:57:11;1.10;99.90
25328;DHT22;13279;51.300;12.394;2022-11-21T02:59:39;1.10;99.90
25328;DHT22;13279;51.300;12.394;2022-11-21T03:02:06;1.10;99.90
25328;DHT22;13279;51.300;12.394;2022-11-21T03:04:34;1.10;99.90
25328;DHT22;13279;51.300;12.394;2022-11-21T03:07:01;1.10;99.90
25328;DHT22;13279;51.300;12.394;2022-11-21T03:09:28;1.10;99.90
25328;DHT22;13279;51.300;12.394;2022-11-21T03:11:56;1.10;99.90
25328;DHT22;13279;51.300;12.394;2022-11-21T03:14:24;1.10;99.90
25328;DHT22;13279;51.300;12.394;2022-11-21T03:16:52;1.10;99.90
25328;DHT22;13279;51.300;12.394;2022-11-21T03:19:19;1.10;99.90
25328;DHT22;13279;51.300;12.394;2022-11-21T03:21:47;1.10;99.90
25328;DHT22;13279;51.300;12.394;2022-11-21T03:24:14;1.10;99.90
25328;DHT22;13279;51.300;12.394;2022-11-21T03:26:42;1.10;99.90
25328;DHT22;13279;51.300;12.394;2022-11-21T03:29:10;1.20;99.90
25328;DHT22;13279;51.300;12.394;2022-11-21T03:31:38;1.20;99.90
25328;DHT22;13279;51.300;12.394;2022-11-21T03:34:06;1.20;99.90
25328;DHT22;13279;51.300;12.394;2022-11-21T03:36:34;1.20;99.90
25328;DHT22;13279;51.300;12.394;2022-11-21T03:39:01;1.20;99.90
25328;DHT22;13279;51.300;12.394;2022-11-21T03:41:29;1.20;99.90
25328;DHT22;13279;51.300;12.394;2022-11-21T03:43:56;1.20;99.90
25328;DHT22;13279;51.300;12.394;2022-11-21T03:46:24;1.20;99.90
25328;DHT22;13279;51.300;12.394;2022-11-21T03:48:54;1.20;99.90
25328;DHT22;13279;51.300;12.394;2022-11-21T03:51:21;1.20;99.90
25328;DHT22;13279;51.300;12.394;2022-11-21T03:53:49;1.20;99.90
25328;DHT22;13279;51.300;12.394;2022-11-21T03:56:17;1.20;99.90
25328;DHT22;13279;51.300;12.394;2022-11-21T03:58:45;1.20;99.90
25328;DHT22;13279;51.300;12.394;2022-11-21T04:01:12;1.20;99.90
25328;DHT22;13279;51.300;12.394;2022-11-21T04:03:41;1.20;99.90
25328;DHT22;13279;51.300;12.394;2022-11-21T04:06:11;1.20;99.90
25328;DHT22;13279;51.300;12.394;2022-11-21T04:08:39;1.20;99.90
25328;DHT22;13279;51.300;12.394;2022-11-21T04:11:07;1.10;99.90
25328;DHT22;13279;51.300;12.394;2022-11-21T04:13:34;1.10;99.90
25328;DHT22;13279;51.300;12.394;2022-11-21T04:16:02;1.00;99.90
25328;DHT22;13279;51.300;12.394;2022-11-21T04:18:30;0.90;99.90
25328;DHT22;13279;51.300;12.394;2022-11-21T04:20:58;0.80;99.90
25328;DHT22;13279;51.300;12.394;2022-11-21T04:23:27;0.80;99.90
25328;DHT22;13279;51.300;12.394;2022-11-21T04:25:54;0.80;99.90
25328;DHT22;13279;51.300;12.394;2022-11-21T04:28:22;0.70;99.90
25328;DHT22;13279;51.300;12.394;2022-11-21T04:30:49;0.70;99.90
25328;DHT22;13279;51.300;12.394;2022-11-21T04:33:17;0.60;99.90
25328;DHT22;13279;51.300;12.394;2022-11-21T04:35:46;0.60;99.90
25328;DHT22;13279;51.300;12.394;2022-11-21T04:38:13;0.50;99.90
25328;DHT22;13279;51.300;12.394;2022-11-21T04:40:43;0.50;99.90
25328;DHT22;13279;51.300;12.394;2022-11-21T04:43:11;0.50;99.90
25328;DHT22;13279;51.300;12.394;2022-11-21T04:45:38;0.40;99.90
25328;DHT22;13279;51.300;12.394;2022-11-21T04:48:06;0.40;99.90
25328;DHT22;13279;51.300;12.394;2022-11-21T04:50:33;0.40;99.90
25328;DHT22;13279;51.300;12.394;2022-11-21T04:53:01;0.40;99.90
25328;DHT22;13279;51.300;12.394;2022-11-21T04:55:29;0.40;99.90
25328;DHT22;13279;51.300;12.394;2022-11-21T04:57:59;0.40;99.90
25328;DHT22;13279;51.300;12.394;2022-11-21T05:00:27;0.40;99.90
25328;DHT22;13279;51.300;12.394;2022-11-21T05:02:54;0.40;99.90
25328;DHT22;13279;51.300;12.394;2022-11-21T05:05:26;0.50;99.90
25328;DHT22;13279;51.300;12.394;2022-11-21T05:07:54;0.40;99.90
25328;DHT22;13279;51.300;12.394;2022-11-21T05:10:21;0.40;99.90
25328;DHT22;13279;51.300;12.394;2022-11-21T05:12:55;0.40;99.90
25328;DHT22;13279;51.300;12.394;2022-11-21T05:15:42;0.40;99.90
25328;DHT22;13279;51.300;12.394;2022-11-21T05:18:10;0.40;99.90
25328;DHT22;13279;51.300;12.394;2022-11-21T05:20:37;0.40;99.90
25328;DHT22;13279;51.300;12.394;2022-11-21T05:23:04;0.40;99.90
25328;DHT22;13279;51.300;12.394;2022-11-21T05:25:32;0.40;99.90
25328;DHT22;13279;51.300;12.394;2022-11-21T05:27:59;0.40;99.90
25328;DHT22;13279;51.300;12.394;2022-11-21T05:30:27;0.40;99.90
25328;DHT22;13279;51.300;12.394;2022-11-21T05:32:55;0.40;99.90
25328;DHT22;13279;51.300;12.394;2022-11-21T05:35:23;0.40;99.90
25328;DHT22;13279;51.300;12.394;2022-11-21T05:37:54;0.40;99.90
25328;DHT22;13279;51.300;12.394;2022-11-21T05:40:22;0.40;99.90
25328;DHT22;13279;51.300;12.394;2022-11-21T05:42:49;0.40;99.90
25328;DHT22;13279;51.300;12.394;2022-11-21T05:45:33;0.40;99.90
25328;DHT22;13279;51.300;12.394;2022-11-21T05:48:02;0.40;99.90
25328;DHT22;13279;51.300;12.394;2022-11-21T05:50:33;0.40;99.90
25328;DHT22;13279;51.300;12.394;2022-11-21T05:53:01;0.40;99.90
25328;DHT22;13279;51.300;12.394;2022-11-21T05:55:29;0.40;99.90
25328;DHT22;13279;51.300;12.394;2022-11-21T05:57:58;0.40;99.90
25328;DHT22;13279;51.300;12.394;2022-11-21T06:00:26;0.40;99.90
25328;DHT22;13279;51.300;12.394;2022-11-21T06:02:53;0.40;99.90
25328;DHT22;13279;51.300;12.394;2022-11-21T06:05:40;0.30;99.90
25328;DHT22;13279;51.300;12.394;2022-11-21T06:08:07;0.40;99.90
25328;DHT22;13279;51.300;12.394;2022-11-21T06:10:35;0.30;99.90
25328;DHT22;13279;51.300;12.394;2022-11-21T06:13:03;0.30;99.90
25328;DHT22;13279;51.300;12.394;2022-11-21T06:15:51;0.30;99.90
25328;DHT22;13279;51.300;12.394;2022-11-21T06:18:38;0.40;99.90
25328;DHT22;13279;51.300;12.394;2022-11-21T06:21:08;0.30;99.90
25328;DHT22;13279;51.300;12.394;2022-11-21T06:23:38;0.30;99.90
25328;DHT22;13279;51.300;12.394;2022-11-21T06:26:07;0.30;99.90
25328;DHT22;13279;51.300;12.394;2022-11-21T06:28:36;0.20;99.90
25328;DHT22;13279;51.300;12.394;2022-11-21T06:31:05;0.20;99.90
25328;DHT22;13279;51.300;12.394;2022-11-21T06:33:34;0.20;99.90
25328;DHT22;13279;51.300;12.394;2022-11-21T06:36:02;0.10;99.90
25328;DHT22;13279;51.300;12.394;2022-11-21T06:38:31;0.10;99.90
25328;DHT22;13279;51.300;12.394;2022-11-21T06:41:03;0.10;99.90
25328;DHT22;13279;51.300;12.394;2022-11-21T06:43:31;0.10;99.90
25328;DHT22;13279;51.300;12.394;2022-11-21T06:45:59;0.10;99.90
25328;DHT22;13279;51.300;12.394;2022-11-21T06:48:28;0.10;99.90
25328;DHT22;13279;51.300;12.394;2022-11-21T06:51:19;0.10;99.90
25328;DHT22;13279;51.300;12.394;2022-11-21T06:53:53;0.10;99.90
25328;DHT22;13279;51.300;12.394;2022-11-21T06:56:21;0.10;99.90
25328;DHT22;13279;51.300;12.394;2022-11-21T06:58:49;0.10;99.90
25328;DHT22;13279;51.300;12.394;2022-11-21T07:01:18;0.10;99.90
25328;DHT22;13279;51.300;12.394;2022-11-21T07:03:46;0.00;99.90
25328;DHT22;13279;51.300;12.394;2022-11-21T07:06:13;0.00;99.90
25328;DHT22;13279;51.300;12.394;2022-11-21T07:08:41;0.10;99.90
25328;DHT22;13279;51.300;12.394;2022-11-21T07:11:11;0.00;99.90
25328;DHT22;13279;51.300;12.394;2022-11-21T07:13:39;0.10;99.90
25328;DHT22;13279;51.300;12.394;2022-11-21T07:16:06;0.10;99.90
25328;DHT22;13279;51.300;12.394;2022-11-21T07:18:35;0.00;99.90
25328;DHT22;13279;51.300;12.394;2022-11-21T07:21:05;0.10;99.90
25328;DHT22;13279;51.300;12.394;2022-11-21T07:23:33;0.10;99.90
25328;DHT22;13279;51.300;12.394;2022-11-21T07:26:01;0.10;99.90
25328;DHT22;13279;51.300;12.394;2022-11-21T07:28:30;0.10;99.90
25328;DHT22;13279;51.300;12.394;2022-11-21T07:30:59;0.10;99.90
25328;DHT22;13279;51.300;12.394;2022-11-21T07:33:27;0.10;99.90
25328;DHT22;13279;51.300;12.394;2022-11-21T07:35:54;0.10;99.90
25328;DHT22;13279;51.300;12.394;2022-11-21T07:38:22;0.20;99.90
25328;DHT22;13279;51.300;12.394;2022-11-21T07:40:50;0.10;99.90
25328;DHT22;13279;51.300;12.394;2022-11-21T07:43:18;0.10;99.90
25328;DHT22;13279;51.300;12.394;2022-11-21T07:45:47;0.20;99.90
25328;DHT22;13279;51.300;12.394;2022-11-21T07:48:15;0.20;99.90
25328;DHT22;13279;51.300;12.394;2022-11-21T07:50:42;0.20;99.90
25328;DHT22;13279;51.300;12.394;2022-11-21T07:53:10;0.20;99.90
25328;DHT22;13279;51.300;12.394;2022-11-21T07:55:38;0.20;99.90
25328;DHT22;13279;51.300;12.394;2022-11-21T07:58:07;0.20;99.90
25328;DHT22;13279;51.300;12.394;2022-11-21T08:03:13;0.20;99.90
25328;DHT22;13279;51.300;12.394;2022-11-21T08:05:42;0.20;99.90
25328;DHT22;13279;51.300;12.394;2022-11-21T08:08:11;0.10;99.90
25328;DHT22;13279;51.300;12.394;2022-11-21T08:10:40;0.10;99.90
25328;DHT22;13279;51.300;12.394;2022-11-21T08:13:08;0.10;99.90
25328;DHT22;13279;51.300;12.394;2022-11-21T08:15:36;0.10;99.90
25328;DHT22;13279;51.300;12.394;2022-11-21T08:18:08;0.10;99.90
25328;DHT22;13279;51.300;12.394;2022-11-21T08:20:37;0.10;99.90
25328;DHT22;13279;51.300;12.394;2022-11-21T08:23:05;0.10;99.90
25328;DHT22;13279;51.300;12.394;2022-11-21T08:25:35;0.10;99.90
25328;DHT22;13279;51.300;12.394;2022-11-21T08:28:03;0.10;99.90
25328;DHT22;13279;51.300;12.394;2022-11-21T08:30:31;0.10;99.90
25328;DHT22;13279;51.300;12.394;2022-11-21T08:32:58;0.10;99.90
25328;DHT22;13279;51.300;12.394;2022-11-21T08:35:26;0.10;99.90
25328;DHT22;13279;51.300;12.394;2022-11-21T08:37:56;0.10;99.90
25328;DHT22;13279;51.300;12.394;2022-11-21T08:40:25;0.10;99.90
25328;DHT22;13279;51.300;12.394;2022-11-21T08:42:55;0.20;99.90
25328;DHT22;13279;51.300;12.394;2022-11-21T08:45:24;0.20;99.90
25328;DHT22;13279;51.300;12.394;2022-11-21T08:47:51;0.20;99.90
25328;DHT22;13279;51.300;12.394;2022-11-21T08:50:19;0.20;99.90
25328;DHT22;13279;51.300;12.394;2022-11-21T08:52:46;0.20;99.90
25328;DHT22;13279;51.300;12.394;2022-11-21T08:55:15;0.20;99.90
25328;DHT22;13279;51.300;12.394;2022-11-21T08:57:43;0.20;99.90
25328;DHT22;13279;51.300;12.394;2022-11-21T09:00:11;0.20;99.90
25328;DHT22;13279;51.300;12.394;2022-11-21T09:02:39;0.20;99.90
25328;DHT22;13279;51.300;12.394;2022-11-21T09:05:07;0.20;99.90
25328;DHT22;13279;51.300;12.394;2022-11-21T09:07:35;0.20;99.90
25328;DHT22;13279;51.300;12.394;2022-11-21T09:10:04;0.30;99.90
25328;DHT22;13279;51.300;12.394;2022-11-21T09:12:32;0.20;99.90
25328;DHT22;13279;51.300;12.394;2022-11-21T09:15:00;0.20;99.90
25328;DHT22;13279;51.300;12.394;2022-11-21T09:17:45;0.20;99.90
25328;DHT22;13279;51.300;12.394;2022-11-21T09:20:31;0.30;99.90
25328;DHT22;13279;51.300;12.394;2022-11-21T09:23:03;0.40;99.90
25328;DHT22;13279;51.300;12.394;2022-11-21T09:25:31;0.40;99.90
25328;DHT22;13279;51.300;12.394;2022-11-21T09:28:01;0.50;99.90
25328;DHT22;13279;51.300;12.394;2022-11-21T09:30:28;0.50;99.90
25328;DHT22;13279;51.300;12.394;2022-11-21T09:32:58;0.60;99.90
25328;DHT22;13279;51.300;12.394;2022-11-21T09:35:26;0.60;99.90
25328;DHT22;13279;51.300;12.394;2022-11-21T09:37:54;0.50;99.90
25328;DHT22;13279;51.300;12.394;2022-11-21T09:40:22;0.40;99.90
25328;DHT22;13279;51.300;12.394;2022-11-21T09:42:57;0.40;99.90
25328;DHT22;13279;51.300;12.394;2022-11-21T09:45:31;0.40;99.90
25328;DHT22;13279;51.300;12.394;2022-11-21T09:48:04;0.40;99.90
25328;DHT22;13279;51.300;12.394;2022-11-21T09:50:37;0.40;99.90
25328;DHT22;13279;51.300;12.394;2022-11-21T09:53:08;0.50;99.90
25328;DHT22;13279;51.300;12.394;2022-11-21T09:55:58;0.40;99.90
25328;DHT22;13279;51.300;12.394;2022-11-21T09:58:30;0.40;99.90
25328;DHT22;13279;51.300;12.394;2022-11-21T10:01:00;0.40;99.90
25328;DHT22;13279;51.300;12.394;2022-11-21T10:03:29;0.50;99.90
25328;DHT22;13279;51.300;12.394;2022-11-21T10:06:00;0.50;99.90
25328;DHT22;13279;51.300;12.394;2022-11-21T10:08:34;0.50;99.90
25328;DHT22;13279;51.300;12.394;2022-11-21T10:11:14;0.60;99.90
25328;DHT22;13279;51.300;12.394;2022-11-21T10:13:56;0.60;99.90
25328;DHT22;13279;51.300;12.394;2022-11-21T10:16:36;0.60;99.90
25328;DHT22;13279;51.300;12.394;2022-11-21T10:19:30;0.50;99.90
25328;DHT22;13279;51.300;12.394;2022-11-21T10:22:19;0.50;99.90
25328;DHT22;13279;51.300;12.394;2022-11-21T10:24:54;0.50;99.90
25328;DHT22;13279;51.300;12.394;2022-11-21T10:27:31;0.60;99.90
25328;DHT22;13279;51.300;12.394;2022-11-21T10:30:03;0.60;99.90
25328;DHT22;13279;51.300;12.394;2022-11-21T10:32:36;0.70;99.90
25328;DHT22;13279;51.300;12.394;2022-11-21T10:35:13;0.70;99.90
25328;DHT22;13279;51.300;12.394;2022-11-21T10:37:46;0.70;99.90
25328;DHT22;13279;51.300;12.394;2022-11-21T10:40:25;0.70;99.90
25328;DHT22;13279;51.300;12.394;2022-11-21T10:42:57;0.70;99.90
25328;DHT22;13279;51.300;12.394;2022-11-21T10:45:47;0.90;99.90
25328;DHT22;13279;51.300;12.394;2022-11-21T10:48:16;0.90;99.90
25328;DHT22;13279;51.300;12.394;2022-11-21T10:50:56;0.90;99.90
25328;DHT22;13279;51.300;12.394;2022-11-21T10:53:30;1.00;99.90
25328;DHT22;13279;51.300;12.394;2022-11-21T10:56:17;1.00;99.90
25328;DHT22;13279;51.300;12.394;2022-11-21T10:58:47;1.10;99.90
25328;DHT22;13279;51.300;12.394;2022-11-21T11:01:20;1.20;99.90
25328;DHT22;13279;51.300;12.394;2022-11-21T11:04:05;1.20;99.90
25328;DHT22;13279;51.300;12.394;2022-11-21T11:06:33;1.20;99.90
25328;DHT22;13279;51.300;12.394;2022-11-21T11:09:01;1.30;99.90
25328;DHT22;13279;51.300;12.394;2022-11-21T11:11:29;1.20;99.90
25328;DHT22;13279;51.300;12.394;2022-11-21T11:13:59;1.20;99.90
25328;DHT22;13279;51.300;12.394;2022-11-21T11:16:28;1.20;99.90
25328;DHT22;13279;51.300;12.394;2022-11-21T11:18:59;1.20;99.90
25328;DHT22;13279;51.300;12.394;2022-11-21T11:21:29;1.10;99.90
25328;DHT22;13279;51.300;12.394;2022-11-21T11:24:20;1.10;99.90
25328;DHT22;13279;51.300;12.394;2022-11-21T11:26:55;1.10;99.90
25328;DHT22;13279;51.300;12.394;2022-11-21T11:29:24;1.00;99.90
25328;DHT22;13279;51.300;12.394;2022-11-21T11:31:54;1.00;99.90
25328;DHT22;13279;51.300;12.394;2022-11-21T11:34:25;1.10;99.90
25328;DHT22;13279;51.300;12.394;2022-11-21T11:36:55;1.10;99.90
25328;DHT22;13279;51.300;12.394;2022-11-21T11:39:37;1.10;99.90
25328;DHT22;13279;51.300;12.394;2022-11-21T11:42:27;1.20;99.90
25328;DHT22;13279;51.300;12.394;2022-11-21T11:45:28;1.20;99.90
25328;DHT22;13279;51.300;12.394;2022-11-21T11:48:14;1.30;99.90
25328;DHT22;13279;51.300;12.394;2022-11-21T11:50:47;1.30;99.90
25328;DHT22;13279;51.300;12.394;2022-11-21T11:53:17;1.30;99.90
25328;DHT22;13279;51.300;12.394;2022-11-21T11:55:49;1.40;99.90
25328;DHT22;13279;51.300;12.394;2022-11-21T11:58:22;1.40;99.90
25328;DHT22;13279;51.300;12.394;2022-11-21T12:00:58;1.60;99.90
25328;DHT22;13279;51.300;12.394;2022-11-21T12:03:33;1.60;99.90
25328;DHT22;13279;51.300;12.394;2022-11-21T12:06:10;1.60;99.90
25328;DHT22;13279;51.300;12.394;2022-11-21T12:08:45;1.60;99.90
25328;DHT22;13279;51.300;12.394;2022-11-21T12:11:32;1.60;99.90
25328;DHT22;13279;51.300;12.394;2022-11-21T12:14:29;1.60;99.90
25328;DHT22;13279;51.300;12.394;2022-11-21T12:17:20;1.60;99.90
25328;DHT22;13279;51.300;12.394;2022-11-21T12:19:51;1.60;99.90
25328;DHT22;13279;51.300;12.394;2022-11-21T12:22:21;1.60;99.90
25328;DHT22;13279;51.300;12.394;2022-11-21T12:24:48;1.60;99.90
25328;DHT22;13279;51.300;12.394;2022-11-21T12:27:22;1.50;99.90
25328;DHT22;13279;51.300;12.394;2022-11-21T12:30:02;1.50;99.90
25328;DHT22;13279;51.300;12.394;2022-11-21T12:32:45;1.40;99.90
25328;DHT22;13279;51.300;12.394;2022-11-21T12:35:32;1.50;99.90
25328;DHT22;13279;51.300;12.394;2022-11-21T12:38:14;1.50;99.90
25328;DHT22;13279;51.300;12.394;2022-11-21T12:40:49;1.60;99.90
25328;DHT22;13279;51.300;12.394;2022-11-21T12:43:33;1.70;99.90
25328;DHT22;13279;51.300;12.394;2022-11-21T12:46:09;1.80;99.90
25328;DHT22;13279;51.300;12.394;2022-11-21T12:48:53;1.90;99.90
25328;DHT22;13279;51.300;12.394;2022-11-21T12:52:03;1.80;99.90
25328;DHT22;13279;51.300;12.394;2022-11-21T12:55:13;1.70;99.90
25328;DHT22;13279;51.300;12.394;2022-11-21T12:58:00;1.70;99.90
25328;DHT22;13279;51.300;12.394;2022-11-21T13:00:35;1.70;99.90
25328;DHT22;13279;51.300;12.394;2022-11-21T13:06:13;1.80;99.90
25328;DHT22;13279;51.300;12.394;2022-11-21T13:08:41;1.90;99.90
25328;DHT22;13279;51.300;12.394;2022-11-21T13:11:25;2.00;99.90
25328;DHT22;13279;51.300;12.394;2022-11-21T13:14:17;2.00;99.90
25328;DHT22;13279;51.300;12.394;2022-11-21T13:16:51;1.90;99.90
25328;DHT22;13279;51.300;12.394;2022-11-21T13:19:25;1.90;99.90
25328;DHT22;13279;51.300;12.394;2022-11-21T13:21:55;1.90;99.90
25328;DHT22;13279;51.300;12.394;2022-11-21T13:24:54;2.00;99.90
25328;DHT22;13279;51.300;12.394;2022-11-21T13:27:29;2.00;99.90
25328;DHT22;13279;51.300;12.394;2022-11-21T13:30:31;2.10;99.90
25328;DHT22;13279;51.300;12.394;2022-11-21T13:32:58;2.20;99.90
25328;DHT22;13279;51.300;12.394;2022-11-21T13:38:29;2.00;99.90
25328;DHT22;13279;51.300;12.394;2022-11-21T13:40:57;2.00;99.90
25328;DHT22;13279;51.300;12.394;2022-11-21T13:43:43;1.90;99.90
25328;DHT22;13279;51.300;12.394;2022-11-21T13:49:20;1.70;99.90
25328;DHT22;13279;51.300;12.394;2022-11-21T13:51:52;1.70;99.90
25328;DHT22;13279;51.300;12.394;2022-11-21T13:57:48;1.60;99.90
25328;DHT22;13279;51.300;12.394;2022-11-21T14:00:40;1.60;99.90
25328;DHT22;13279;51.300;12.394;2022-11-21T14:06:35;1.60;99.90
25328;DHT22;13279;51.300;12.394;2022-11-21T14:09:16;1.50;99.90
25328;DHT22;13279;51.300;12.394;2022-11-21T14:11:47;1.50;99.90
25328;DHT22;13279;51.300;12.394;2022-11-21T14:14:24;1.50;99.90
25328;DHT22;13279;51.300;12.394;2022-11-21T14:17:01;1.50;99.90
25328;DHT22;13279;51.300;12.394;2022-11-21T14:19:31;1.50;99.90
25328;DHT22;13279;51.300;12.394;2022-11-21T14:22:00;1.50;99.90
25328;DHT22;13279;51.300;12.394;2022-11-21T14:24:28;1.40;99.90
25328;DHT22;13279;51.300;12.394;2022-11-21T14:26:55;1.40;99.90
25328;DHT22;13279;51.300;12.394;2022-11-21T14:29:26;1.40;99.90
25328;DHT22;13279;51.300;12.394;2022-11-21T14:31:56;1.40;99.90
25328;DHT22;13279;51.300;12.394;2022-11-21T14:34:24;1.40;99.90
25328;DHT22;13279;51.300;12.394;2022-11-21T14:36:56;1.40;99.90
25328;DHT22;13279;51.300;12.394;2022-11-21T14:39:26;1.40;99.90
25328;DHT22;13279;51.300;12.394;2022-11-21T14:41:55;1.40;99.90
25328;DHT22;13279;51.300;12.394;2022-11-21T14:44:24;1.40;99.90
25328;DHT22;13279;51.300;12.394;2022-11-21T14:47:07;1.40;99.90
25328;DHT22;13279;51.300;12.394;2022-11-21T14:49:38;1.40;99.90
25328;DHT22;13279;51.300;12.394;2022-11-21T14:52:16;1.40;99.90
25328;DHT22;13279;51.300;12.394;2022-11-21T14:54:50;1.40;99.90
25328;DHT22;13279;51.300;12.394;2022-11-21T14:57:22;1.40;99.90
25328;DHT22;13279;51.300;12.394;2022-11-21T14:59:50;1.40;99.90
25328;DHT22;13279;51.300;12.394;2022-11-21T15:02:22;1.40;99.90
25328;DHT22;13279;51.300;12.394;2022-11-21T15:04:51;1.40;99.90
25328;DHT22;13279;51.300;12.394;2022-11-21T15:07:22;1.30;99.90
25328;DHT22;13279;51.300;12.394;2022-11-21T15:09:50;1.30;99.90
25328;DHT22;13279;51.300;12.394;2022-11-21T15:12:22;1.30;99.90
25328;DHT22;13279;51.300;12.394;2022-11-21T15:14:57;1.20;99.90
25328;DHT22;13279;51.300;12.394;2022-11-21T15:17:27;1.20;99.90
25328;DHT22;13279;51.300;12.394;2022-11-21T15:20:04;1.20;99.90
25328;DHT22;13279;51.300;12.394;2022-11-21T15:22:35;1.10;99.90
25328;DHT22;13279;51.300;12.394;2022-11-21T15:25:13;1.10;99.90
25328;DHT22;13279;51.300;12.394;2022-11-21T15:27:43;1.10;99.90
25328;DHT22;13279;51.300;12.394;2022-11-21T15:30:25;1.10;99.90
25328;DHT22;13279;51.300;12.394;2022-11-21T15:33:03;1.10;99.90
25328;DHT22;13279;51.300;12.394;2022-11-21T15:35:53;1.10;99.90
25328;DHT22;13279;51.300;12.394;2022-11-21T15:38:30;1.10;99.90
25328;DHT22;13279;51.300;12.394;2022-11-21T15:41:00;1.10;99.90
25328;DHT22;13279;51.300;12.394;2022-11-21T15:43:36;1.10;99.90
25328;DHT22;13279;51.300;12.394;2022-11-21T15:46:12;1.10;99.90
25328;DHT22;13279;51.300;12.394;2022-11-21T15:48:43;1.10;99.90
25328;DHT22;13279;51.300;12.394;2022-11-21T15:51:11;1.10;99.90
25328;DHT22;13279;51.300;12.394;2022-11-21T15:53:39;1.10;99.90
25328;DHT22;13279;51.300;12.394;2022-11-21T15:56:10;1.10;99.90
25328;DHT22;13279;51.300;12.394;2022-11-21T15:58:39;1.10;99.90
25328;DHT22;13279;51.300;12.394;2022-11-21T16:01:11;1.10;99.90
25328;DHT22;13279;51.300;12.394;2022-11-21T16:03:41;1.10;99.90
25328;DHT22;13279;51.300;12.394;2022-11-21T16:06:09;1.10;99.90
25328;DHT22;13279;51.300;12.394;2022-11-21T16:08:37;1.00;99.90
25328;DHT22;13279;51.300;12.394;2022-11-21T16:11:04;1.10;99.90
25328;DHT22;13279;51.300;12.394;2022-11-21T16:13:32;1.10;99.90
25328;DHT22;13279;51.300;12.394;2022-11-21T16:16:01;1.00;99.90